sensor_id;sensor_type;location;lat;lon;timestamp;temperature;humidity
296;DHT22;132;48.770;9.200;2022-08-21T00:00:43;18.10;1.00
296;DHT22;132;48.770;9.200;2022-08-21T00:03:30;18.10;1.00
296;DHT22;132;48.770;9.200;2022-08-21T00:06:17;18.00;1.00
296;DHT22;132;48.770;9.200;2022-08-21T00:09:07;18.00;1.00
296;DHT22;132;48.770;9.200;2022-08-21T00:11:54;17.90;1.00
296;DHT22;132;48.770;9.200;2022-08-21T00:14:40;17.90;1.00
296;DHT22;132;48.770;9.200;2022-08-21T00:17:27;17.80;1.00
296;DHT22;132;48.770;9.200;2022-08-21T00:20:15;17.80;1.00
296;DHT22;132;48.770;9.200;2022-08-21T00:23:02;17.70;1.00
296;DHT22;132;48.770;9.200;2022-08-21T00:25:49;17.60;1.00
296;DHT22;132;48.770;9.200;2022-08-21T00:28:35;17.60;1.00
296;DHT22;132;48.770;9.200;2022-08-21T00:31:22;17.50;1.00
296;DHT22;132;48.770;9.200;2022-08-21T00:34:11;17.50;1.00
296;DHT22;132;48.770;9.200;2022-08-21T00:36:57;17.50;1.00
296;DHT22;132;48.770;9.200;2022-08-21T00:39:44;17.40;1.00
296;DHT22;132;48.770;9.200;2022-08-21T00:42:31;17.60;1.00
296;DHT22;132;48.770;9.200;2022-08-21T00:45:17;17.40;1.00
296;DHT22;132;48.770;9.200;2022-08-21T00:48:05;17.30;1.00
296;DHT22;132;48.770;9.200;2022-08-21T00:50:56;17.30;1.00
296;DHT22;132;48.770;9.200;2022-08-21T00:53:44;17.30;1.00
296;DHT22;132;48.770;9.200;2022-08-21T00:56:31;17.20;1.00
296;DHT22;132;48.770;9.200;2022-08-21T00:59:19;17.20;1.00
296;DHT22;132;48.770;9.200;2022-08-21T01:02:07;17.40;1.00
296;DHT22;132;48.770;9.200;2022-08-21T01:04:54;17.10;1.00
296;DHT22;132;48.770;9.200;2022-08-21T01:07:41;17.10;1.00
296;DHT22;132;48.770;9.200;2022-08-21T01:10:29;17.10;1.00
296;DHT22;132;48.770;9.200;2022-08-21T01:13:17;17.00;1.00
296;DHT22;132;48.770;9.200;2022-08-21T01:16:08;16.90;1.00
296;DHT22;132;48.770;9.200;2022-08-21T01:18:55;16.90;1.00
296;DHT22;132;48.770;9.200;2022-08-21T01:21:42;16.90;1.00
296;DHT22;132;48.770;9.200;2022-08-21T01:24:29;16.90;1.00
296;DHT22;132;48.770;9.200;2022-08-21T01:27:17;16.90;1.00
296;DHT22;132;48.770;9.200;2022-08-21T01:30:14;16.90;1.00
296;DHT22;132;48.770;9.200;2022-08-21T01:33:02;16.90;1.00
296;DHT22;132;48.770;9.200;2022-08-21T01:35:49;16.90;1.00
296;DHT22;132;48.770;9.200;2022-08-21T01:38:35;16.80;1.00
296;DHT22;132;48.770;9.200;2022-08-21T01:41:22;16.90;1.00
296;DHT22;132;48.770;9.200;2022-08-21T01:44:09;16.80;1.00
296;DHT22;132;48.770;9.200;2022-08-21T01:46:58;16.80;1.00
296;DHT22;132;48.770;9.200;2022-08-21T01:49:46;16.80;1.00
296;DHT22;132;48.770;9.200;2022-08-21T01:52:32;16.70;1.00
296;DHT22;132;48.770;9.200;2022-08-21T01:55:21;16.70;1.00
296;DHT22;132;48.770;9.200;2022-08-21T01:58:08;16.70;1.00
296;DHT22;132;48.770;9.200;2022-08-21T02:00:54;16.60;1.00
296;DHT22;132;48.770;9.200;2022-08-21T02:03:41;16.60;1.00
296;DHT22;132;48.770;9.200;2022-08-21T02:06:28;16.60;1.00
296;DHT22;132;48.770;9.200;2022-08-21T02:09:15;16.60;1.00
296;DHT22;132;48.770;9.200;2022-08-21T02:12:02;16.60;1.00
296;DHT22;132;48.770;9.200;2022-08-21T02:14:49;16.50;1.00
296;DHT22;132;48.770;9.200;2022-08-21T02:20:40;16.40;1.00
296;DHT22;132;48.770;9.200;2022-08-21T02:23:27;16.40;1.00
296;DHT22;132;48.770;9.200;2022-08-21T02:26:14;16.30;1.00
296;DHT22;132;48.770;9.200;2022-08-21T02:29:01;16.50;1.00
296;DHT22;132;48.770;9.200;2022-08-21T02:31:49;16.20;1.00
296;DHT22;132;48.770;9.200;2022-08-21T02:34:35;16.20;1.00
296;DHT22;132;48.770;9.200;2022-08-21T02:37:23;16.20;1.00
296;DHT22;132;48.770;9.200;2022-08-21T02:40:11;16.10;1.00
296;DHT22;132;48.770;9.200;2022-08-21T02:42:59;16.10;1.00
296;DHT22;132;48.770;9.200;2022-08-21T02:45:47;16.00;1.00
296;DHT22;132;48.770;9.200;2022-08-21T02:48:34;16.00;1.00
296;DHT22;132;48.770;9.200;2022-08-21T02:51:20;16.70;1.00
296;DHT22;132;48.770;9.200;2022-08-21T02:54:09;15.90;1.00
296;DHT22;132;48.770;9.200;2022-08-21T02:56:55;15.90;1.00
296;DHT22;132;48.770;9.200;2022-08-21T02:59:42;15.80;1.00
296;DHT22;132;48.770;9.200;2022-08-21T03:02:28;15.80;1.00
296;DHT22;132;48.770;9.200;2022-08-21T03:05:16;15.80;1.00
296;DHT22;132;48.770;9.200;2022-08-21T03:08:05;15.70;1.00
296;DHT22;132;48.770;9.200;2022-08-21T03:10:56;15.70;1.00
296;DHT22;132;48.770;9.200;2022-08-21T03:13:43;15.70;1.00
296;DHT22;132;48.770;9.200;2022-08-21T03:16:29;15.70;1.00
296;DHT22;132;48.770;9.200;2022-08-21T03:19:16;15.60;1.00
296;DHT22;132;48.770;9.200;2022-08-21T03:22:03;15.60;1.00
296;DHT22;132;48.770;9.200;2022-08-21T03:24:49;15.60;1.00
296;DHT22;132;48.770;9.200;2022-08-21T03:27:37;15.80;1.00
296;DHT22;132;48.770;9.200;2022-08-21T03:30:24;15.60;1.00
296;DHT22;132;48.770;9.200;2022-08-21T03:33:11;15.50;1.00
296;DHT22;132;48.770;9.200;2022-08-21T03:36:04;15.50;1.00
296;DHT22;132;48.770;9.200;2022-08-21T03:38:51;15.50;1.00
296;DHT22;132;48.770;9.200;2022-08-21T03:41:37;15.60;1.00
296;DHT22;132;48.770;9.200;2022-08-21T03:44:24;15.50;1.00
296;DHT22;132;48.770;9.200;2022-08-21T03:47:11;15.50;1.00
296;DHT22;132;48.770;9.200;2022-08-21T03:49:57;15.40;1.00
296;DHT22;132;48.770;9.200;2022-08-21T03:52:45;15.40;1.00
296;DHT22;132;48.770;9.200;2022-08-21T03:55:32;15.40;1.00
296;DHT22;132;48.770;9.200;2022-08-21T03:58:22;15.40;1.00
296;DHT22;132;48.770;9.200;2022-08-21T04:01:09;15.40;1.00
296;DHT22;132;48.770;9.200;2022-08-21T04:03:56;15.40;1.00
296;DHT22;132;48.770;9.200;2022-08-21T04:06:43;15.30;1.00
296;DHT22;132;48.770;9.200;2022-08-21T04:09:29;15.30;1.00
296;DHT22;132;48.770;9.200;2022-08-21T04:12:16;15.30;1.00
296;DHT22;132;48.770;9.200;2022-08-21T04:15:03;15.20;1.00
296;DHT22;132;48.770;9.200;2022-08-21T04:17:50;15.20;1.00
296;DHT22;132;48.770;9.200;2022-08-21T04:20:37;15.20;1.00
296;DHT22;132;48.770;9.200;2022-08-21T04:23:24;15.20;1.00
296;DHT22;132;48.770;9.200;2022-08-21T04:26:11;15.20;1.00
296;DHT22;132;48.770;9.200;2022-08-21T04:28:58;15.20;1.00
296;DHT22;132;48.770;9.200;2022-08-21T04:31:45;15.20;1.00
296;DHT22;132;48.770;9.200;2022-08-21T04:34:31;14.80;1.00
296;DHT22;132;48.770;9.200;2022-08-21T04:37:18;15.10;1.00
296;DHT22;132;48.770;9.200;2022-08-21T04:40:05;15.10;1.00
296;DHT22;132;48.770;9.200;2022-08-21T04:42:58;15.10;1.00
296;DHT22;132;48.770;9.200;2022-08-21T04:45:48;15.10;1.00
296;DHT22;132;48.770;9.200;2022-08-21T04:48:35;15.10;1.00
296;DHT22;132;48.770;9.200;2022-08-21T04:51:28;15.20;1.00
296;DHT22;132;48.770;9.200;2022-08-21T04:54:20;15.20;1.00
296;DHT22;132;48.770;9.200;2022-08-21T04:57:08;15.20;1.00
296;DHT22;132;48.770;9.200;2022-08-21T04:59:57;15.20;1.00
296;DHT22;132;48.770;9.200;2022-08-21T05:02:45;15.20;1.00
296;DHT22;132;48.770;9.200;2022-08-21T05:05:33;15.30;1.00
296;DHT22;132;48.770;9.200;2022-08-21T05:08:23;15.30;1.00
296;DHT22;132;48.770;9.200;2022-08-21T05:11:12;15.40;1.00
296;DHT22;132;48.770;9.200;2022-08-21T05:13:59;15.30;1.00
296;DHT22;132;48.770;9.200;2022-08-21T05:16:46;15.40;1.00
296;DHT22;132;48.770;9.200;2022-08-21T05:19:33;15.50;1.00
296;DHT22;132;48.770;9.200;2022-08-21T05:22:21;15.50;1.00
296;DHT22;132;48.770;9.200;2022-08-21T05:25:10;15.60;1.00
296;DHT22;132;48.770;9.200;2022-08-21T05:27:57;15.60;1.00
296;DHT22;132;48.770;9.200;2022-08-21T05:30:44;15.60;1.00
296;DHT22;132;48.770;9.200;2022-08-21T05:33:31;15.70;1.00
296;DHT22;132;48.770;9.200;2022-08-21T05:36:18;15.70;1.00
296;DHT22;132;48.770;9.200;2022-08-21T05:39:05;15.70;1.00
296;DHT22;132;48.770;9.200;2022-08-21T05:41:51;15.80;1.00
296;DHT22;132;48.770;9.200;2022-08-21T05:44:38;15.80;1.00
296;DHT22;132;48.770;9.200;2022-08-21T05:47:25;15.90;1.00
296;DHT22;132;48.770;9.200;2022-08-21T05:50:11;16.00;1.00
296;DHT22;132;48.770;9.200;2022-08-21T05:52:58;16.00;1.00
296;DHT22;132;48.770;9.200;2022-08-21T05:55:45;16.10;1.00
296;DHT22;132;48.770;9.200;2022-08-21T05:58:33;16.20;1.00
296;DHT22;132;48.770;9.200;2022-08-21T06:01:20;16.30;1.00
296;DHT22;132;48.770;9.200;2022-08-21T06:04:06;16.30;1.00
296;DHT22;132;48.770;9.200;2022-08-21T06:06:53;16.40;1.00
296;DHT22;132;48.770;9.200;2022-08-21T06:09:40;16.50;1.00
296;DHT22;132;48.770;9.200;2022-08-21T06:12:27;16.60;1.00
296;DHT22;132;48.770;9.200;2022-08-21T06:15:13;16.60;1.00
296;DHT22;132;48.770;9.200;2022-08-21T06:18:00;16.70;1.00
296;DHT22;132;48.770;9.200;2022-08-21T06:20:46;16.80;1.00
296;DHT22;132;48.770;9.200;2022-08-21T06:23:34;16.90;1.00
296;DHT22;132;48.770;9.200;2022-08-21T06:26:21;17.10;1.00
296;DHT22;132;48.770;9.200;2022-08-21T06:29:08;17.00;1.00
296;DHT22;132;48.770;9.200;2022-08-21T06:31:56;17.10;1.00
296;DHT22;132;48.770;9.200;2022-08-21T06:34:43;17.20;1.00
296;DHT22;132;48.770;9.200;2022-08-21T06:37:29;17.30;1.00
296;DHT22;132;48.770;9.200;2022-08-21T06:40:16;17.40;1.00
296;DHT22;132;48.770;9.200;2022-08-21T06:43:08;17.50;1.00
296;DHT22;132;48.770;9.200;2022-08-21T06:45:55;17.60;1.00
296;DHT22;132;48.770;9.200;2022-08-21T06:48:42;17.70;1.00
296;DHT22;132;48.770;9.200;2022-08-21T06:51:29;17.70;1.00
296;DHT22;132;48.770;9.200;2022-08-21T06:54:15;17.90;1.00
296;DHT22;132;48.770;9.200;2022-08-21T06:57:02;18.00;1.00
296;DHT22;132;48.770;9.200;2022-08-21T06:59:49;18.10;1.00
296;DHT22;132;48.770;9.200;2022-08-21T07:02:35;18.20;1.00
296;DHT22;132;48.770;9.200;2022-08-21T07:05:25;18.30;1.00
296;DHT22;132;48.770;9.200;2022-08-21T07:08:12;18.40;1.00
296;DHT22;132;48.770;9.200;2022-08-21T07:11:01;18.70;1.00
296;DHT22;132;48.770;9.200;2022-08-21T07:13:49;18.70;1.00
296;DHT22;132;48.770;9.200;2022-08-21T07:16:38;18.70;1.00
296;DHT22;132;48.770;9.200;2022-08-21T07:19:24;18.90;1.00
296;DHT22;132;48.770;9.200;2022-08-21T07:22:12;18.80;1.00
296;DHT22;132;48.770;9.200;2022-08-21T07:24:59;19.20;1.00
296;DHT22;132;48.770;9.200;2022-08-21T07:27:46;19.00;1.00
296;DHT22;132;48.770;9.200;2022-08-21T07:30:32;19.10;1.00
296;DHT22;132;48.770;9.200;2022-08-21T07:33:19;19.20;1.00
296;DHT22;132;48.770;9.200;2022-08-21T07:36:06;19.30;1.00
296;DHT22;132;48.770;9.200;2022-08-21T07:38:53;19.40;1.00
296;DHT22;132;48.770;9.200;2022-08-21T07:41:40;19.50;1.00
296;DHT22;132;48.770;9.200;2022-08-21T07:44:26;19.60;1.00
296;DHT22;132;48.770;9.200;2022-08-21T07:47:13;19.60;1.00
296;DHT22;132;48.770;9.200;2022-08-21T07:50:00;19.70;1.00
296;DHT22;132;48.770;9.200;2022-08-21T07:52:46;19.70;1.00
296;DHT22;132;48.770;9.200;2022-08-21T07:55:33;19.80;1.00
296;DHT22;132;48.770;9.200;2022-08-21T07:58:20;19.90;1.00
296;DHT22;132;48.770;9.200;2022-08-21T08:01:07;20.00;1.00
296;DHT22;132;48.770;9.200;2022-08-21T08:03:53;20.00;1.00
296;DHT22;132;48.770;9.200;2022-08-21T08:06:41;20.10;1.00
296;DHT22;132;48.770;9.200;2022-08-21T08:09:28;20.20;1.00
296;DHT22;132;48.770;9.200;2022-08-21T08:12:15;20.20;1.00
296;DHT22;132;48.770;9.200;2022-08-21T08:15:03;20.30;1.00
296;DHT22;132;48.770;9.200;2022-08-21T08:17:50;20.40;1.00
296;DHT22;132;48.770;9.200;2022-08-21T08:20:37;20.50;1.00
296;DHT22;132;48.770;9.200;2022-08-21T08:23:23;20.60;1.00
296;DHT22;132;48.770;9.200;2022-08-21T08:26:10;20.70;1.00
296;DHT22;132;48.770;9.200;2022-08-21T08:28:57;20.70;1.00
296;DHT22;132;48.770;9.200;2022-08-21T08:31:45;20.80;1.00
296;DHT22;132;48.770;9.200;2022-08-21T08:34:31;20.90;1.00
296;DHT22;132;48.770;9.200;2022-08-21T08:37:19;21.00;1.00
296;DHT22;132;48.770;9.200;2022-08-21T08:40:14;21.10;1.00
296;DHT22;132;48.770;9.200;2022-08-21T08:43:01;21.20;1.00
296;DHT22;132;48.770;9.200;2022-08-21T08:45:50;21.40;1.00
296;DHT22;132;48.770;9.200;2022-08-21T08:51:46;21.60;1.00
296;DHT22;132;48.770;9.200;2022-08-21T08:54:39;21.70;1.00
296;DHT22;132;48.770;9.200;2022-08-21T08:57:26;21.70;1.00
296;DHT22;132;48.770;9.200;2022-08-21T09:00:16;21.70;1.00
296;DHT22;132;48.770;9.200;2022-08-21T09:03:03;21.80;1.00
296;DHT22;132;48.770;9.200;2022-08-21T09:06:11;21.80;1.00
296;DHT22;132;48.770;9.200;2022-08-21T09:12:09;22.00;1.00
296;DHT22;132;48.770;9.200;2022-08-21T09:18:21;22.20;1.00
296;DHT22;132;48.770;9.200;2022-08-21T09:25:08;22.30;1.00
296;DHT22;132;48.770;9.200;2022-08-21T09:27:57;22.40;1.00
296;DHT22;132;48.770;9.200;2022-08-21T09:30:44;22.50;1.00
296;DHT22;132;48.770;9.200;2022-08-21T09:33:30;22.60;1.00
296;DHT22;132;48.770;9.200;2022-08-21T09:36:35;22.70;1.00
296;DHT22;132;48.770;9.200;2022-08-21T09:42:22;23.00;1.00
296;DHT22;132;48.770;9.200;2022-08-21T09:45:14;22.90;1.00
296;DHT22;132;48.770;9.200;2022-08-21T09:48:09;22.90;1.00
296;DHT22;132;48.770;9.200;2022-08-21T09:51:07;23.10;1.00
296;DHT22;132;48.770;9.200;2022-08-21T09:56:56;23.30;1.00
296;DHT22;132;48.770;9.200;2022-08-21T10:00:29;23.40;1.00
296;DHT22;132;48.770;9.200;2022-08-21T10:03:20;23.40;1.00
296;DHT22;132;48.770;9.200;2022-08-21T10:06:09;23.50;1.00
296;DHT22;132;48.770;9.200;2022-08-21T10:09:05;23.50;1.00
296;DHT22;132;48.770;9.200;2022-08-21T10:20:44;23.60;1.00
296;DHT22;132;48.770;9.200;2022-08-21T10:29:47;23.80;1.00
296;DHT22;132;48.770;9.200;2022-08-21T10:36:02;23.90;1.00
296;DHT22;132;48.770;9.200;2022-08-21T10:39:21;23.90;1.00
296;DHT22;132;48.770;9.200;2022-08-21T10:48:42;23.90;1.00
296;DHT22;132;48.770;9.200;2022-08-21T10:51:42;23.70;1.00
296;DHT22;132;48.770;9.200;2022-08-21T10:54:51;23.90;1.00
296;DHT22;132;48.770;9.200;2022-08-21T11:00:50;24.20;1.00
296;DHT22;132;48.770;9.200;2022-08-21T11:03:43;24.30;1.00
296;DHT22;132;48.770;9.200;2022-08-21T11:06:31;24.20;1.00
296;DHT22;132;48.770;9.200;2022-08-21T11:09:22;24.30;1.00
296;DHT22;132;48.770;9.200;2022-08-21T11:18:29;24.30;1.00
296;DHT22;132;48.770;9.200;2022-08-21T11:21:30;24.50;1.00
296;DHT22;132;48.770;9.200;2022-08-21T11:30:07;24.90;1.00
296;DHT22;132;48.770;9.200;2022-08-21T11:35:59;24.90;1.00
296;DHT22;132;48.770;9.200;2022-08-21T11:40:00;24.90;1.00
296;DHT22;132;48.770;9.200;2022-08-21T11:45:54;24.80;1.00
296;DHT22;132;48.770;9.200;2022-08-21T11:48:47;24.90;1.00
296;DHT22;132;48.770;9.200;2022-08-21T11:58:02;25.20;1.00
296;DHT22;132;48.770;9.200;2022-08-21T12:00:51;25.00;1.00
296;DHT22;132;48.770;9.200;2022-08-21T12:03:42;24.90;1.00
296;DHT22;132;48.770;9.200;2022-08-21T12:06:36;24.90;1.00
296;DHT22;132;48.770;9.200;2022-08-21T12:12:13;25.00;1.00
296;DHT22;132;48.770;9.200;2022-08-21T12:18:22;24.20;1.00
296;DHT22;132;48.770;9.200;2022-08-21T12:21:25;25.20;1.00
296;DHT22;132;48.770;9.200;2022-08-21T12:24:33;25.20;1.00
296;DHT22;132;48.770;9.200;2022-08-21T12:27:49;25.20;1.00
296;DHT22;132;48.770;9.200;2022-08-21T12:30:40;25.20;1.00
296;DHT22;132;48.770;9.200;2022-08-21T12:33:28;25.30;1.00
296;DHT22;132;48.770;9.200;2022-08-21T12:36:24;25.50;1.00
296;DHT22;132;48.770;9.200;2022-08-21T12:39:22;25.60;1.00
296;DHT22;132;48.770;9.200;2022-08-21T12:42:33;25.60;1.00
296;DHT22;132;48.770;9.200;2022-08-21T12:45:49;25.50;1.00
296;DHT22;132;48.770;9.200;2022-08-21T12:49:07;25.50;1.00
296;DHT22;132;48.770;9.200;2022-08-21T12:52:00;25.70;1.00
296;DHT22;132;48.770;9.200;2022-08-21T12:54:48;26.00;1.00
296;DHT22;132;48.770;9.200;2022-08-21T12:57:36;26.30;1.00
296;DHT22;132;48.770;9.200;2022-08-21T13:00:26;26.30;1.00
296;DHT22;132;48.770;9.200;2022-08-21T13:03:14;26.40;1.00
296;DHT22;132;48.770;9.200;2022-08-21T13:06:03;26.70;1.00
296;DHT22;132;48.770;9.200;2022-08-21T13:08:57;27.00;1.00
296;DHT22;132;48.770;9.200;2022-08-21T13:11:50;27.30;1.00
296;DHT22;132;48.770;9.200;2022-08-21T13:14:40;27.70;1.00
296;DHT22;132;48.770;9.200;2022-08-21T13:17:31;28.10;1.00
296;DHT22;132;48.770;9.200;2022-08-21T13:20:27;28.60;1.00
296;DHT22;132;48.770;9.200;2022-08-21T13:23:28;29.10;1.00
296;DHT22;132;48.770;9.200;2022-08-21T13:26:19;29.60;1.00
296;DHT22;132;48.770;9.200;2022-08-21T13:29:11;30.00;1.00
296;DHT22;132;48.770;9.200;2022-08-21T13:32:02;30.10;1.00
296;DHT22;132;48.770;9.200;2022-08-21T13:34:49;30.40;1.00
296;DHT22;132;48.770;9.200;2022-08-21T13:37:39;30.60;1.00
296;DHT22;132;48.770;9.200;2022-08-21T13:40:38;30.80;1.00
296;DHT22;132;48.770;9.200;2022-08-21T13:43:32;31.00;1.00
296;DHT22;132;48.770;9.200;2022-08-21T13:46:22;31.20;1.00
296;DHT22;132;48.770;9.200;2022-08-21T13:49:12;31.40;1.00
296;DHT22;132;48.770;9.200;2022-08-21T13:51:59;31.80;1.00
296;DHT22;132;48.770;9.200;2022-08-21T13:54:56;32.00;1.00
296;DHT22;132;48.770;9.200;2022-08-21T13:57:43;31.50;1.00
296;DHT22;132;48.770;9.200;2022-08-21T14:00:33;30.80;1.00
296;DHT22;132;48.770;9.200;2022-08-21T14:03:33;30.10;1.00
296;DHT22;132;48.770;9.200;2022-08-21T14:06:25;29.60;1.00
296;DHT22;132;48.770;9.200;2022-08-21T14:09:30;29.90;1.00
296;DHT22;132;48.770;9.200;2022-08-21T14:12:29;30.50;1.00
296;DHT22;132;48.770;9.200;2022-08-21T14:15:24;31.20;1.00
296;DHT22;132;48.770;9.200;2022-08-21T14:18:17;31.70;1.00
296;DHT22;132;48.770;9.200;2022-08-21T14:21:07;32.20;1.00
296;DHT22;132;48.770;9.200;2022-08-21T14:27:01;33.00;1.00
296;DHT22;132;48.770;9.200;2022-08-21T14:29:48;33.30;1.00
296;DHT22;132;48.770;9.200;2022-08-21T14:32:40;33.50;1.00
296;DHT22;132;48.770;9.200;2022-08-21T14:35:27;33.60;1.00
296;DHT22;132;48.770;9.200;2022-08-21T14:38:19;33.60;1.00
296;DHT22;132;48.770;9.200;2022-08-21T14:41:19;33.70;1.00
296;DHT22;132;48.770;9.200;2022-08-21T14:44:08;33.90;1.00
296;DHT22;132;48.770;9.200;2022-08-21T14:46:55;33.90;1.00
296;DHT22;132;48.770;9.200;2022-08-21T14:49:42;34.10;1.00
296;DHT22;132;48.770;9.200;2022-08-21T14:52:29;34.50;1.00
296;DHT22;132;48.770;9.200;2022-08-21T14:55:17;34.70;1.00
296;DHT22;132;48.770;9.200;2022-08-21T14:58:04;34.90;1.00
296;DHT22;132;48.770;9.200;2022-08-21T15:00:51;35.00;1.00
296;DHT22;132;48.770;9.200;2022-08-21T15:03:39;35.20;1.00
296;DHT22;132;48.770;9.200;2022-08-21T15:06:26;34.90;1.00
296;DHT22;132;48.770;9.200;2022-08-21T15:09:13;34.60;1.00
296;DHT22;132;48.770;9.200;2022-08-21T15:12:02;34.40;1.00
296;DHT22;132;48.770;9.200;2022-08-21T15:14:50;34.20;1.00
296;DHT22;132;48.770;9.200;2022-08-21T15:17:37;33.60;1.00
296;DHT22;132;48.770;9.200;2022-08-21T15:20:24;32.80;1.00
296;DHT22;132;48.770;9.200;2022-08-21T15:23:10;31.90;1.00
296;DHT22;132;48.770;9.200;2022-08-21T15:25:57;31.20;1.00
296;DHT22;132;48.770;9.200;2022-08-21T15:28:44;30.50;1.00
296;DHT22;132;48.770;9.200;2022-08-21T15:31:31;29.90;1.00
296;DHT22;132;48.770;9.200;2022-08-21T15:34:18;29.40;1.00
296;DHT22;132;48.770;9.200;2022-08-21T15:37:04;28.90;1.00
296;DHT22;132;48.770;9.200;2022-08-21T15:39:54;28.50;1.00
296;DHT22;132;48.770;9.200;2022-08-21T15:42:41;28.20;1.00
296;DHT22;132;48.770;9.200;2022-08-21T15:45:29;27.90;1.00
296;DHT22;132;48.770;9.200;2022-08-21T15:48:16;27.70;1.00
296;DHT22;132;48.770;9.200;2022-08-21T15:51:02;27.50;1.00
296;DHT22;132;48.770;9.200;2022-08-21T15:53:49;27.40;1.00
296;DHT22;132;48.770;9.200;2022-08-21T15:56:38;27.20;1.00
296;DHT22;132;48.770;9.200;2022-08-21T15:59:25;27.10;1.00
296;DHT22;132;48.770;9.200;2022-08-21T16:02:17;27.00;1.00
296;DHT22;132;48.770;9.200;2022-08-21T16:05:05;26.90;1.00
296;DHT22;132;48.770;9.200;2022-08-21T16:07:52;26.70;1.00
296;DHT22;132;48.770;9.200;2022-08-21T16:10:39;26.60;1.00
296;DHT22;132;48.770;9.200;2022-08-21T16:13:29;26.40;1.00
296;DHT22;132;48.770;9.200;2022-08-21T16:16:18;26.40;1.00
296;DHT22;132;48.770;9.200;2022-08-21T16:19:06;26.20;1.00
296;DHT22;132;48.770;9.200;2022-08-21T16:21:53;26.20;1.00
296;DHT22;132;48.770;9.200;2022-08-21T16:24:39;26.10;1.00
296;DHT22;132;48.770;9.200;2022-08-21T16:27:26;26.10;1.00
296;DHT22;132;48.770;9.200;2022-08-21T16:30:15;26.00;1.00
296;DHT22;132;48.770;9.200;2022-08-21T16:33:03;26.00;1.00
296;DHT22;132;48.770;9.200;2022-08-21T16:35:50;26.00;1.00
296;DHT22;132;48.770;9.200;2022-08-21T16:38:38;25.90;1.00
296;DHT22;132;48.770;9.200;2022-08-21T16:41:31;25.90;1.00
296;DHT22;132;48.770;9.200;2022-08-21T16:44:20;25.90;1.00
296;DHT22;132;48.770;9.200;2022-08-21T16:47:08;25.90;1.00
296;DHT22;132;48.770;9.200;2022-08-21T16:49:54;25.90;1.00
296;DHT22;132;48.770;9.200;2022-08-21T16:52:42;25.80;1.00
296;DHT22;132;48.770;9.200;2022-08-21T16:55:29;25.70;1.00
296;DHT22;132;48.770;9.200;2022-08-21T16:58:24;25.70;1.00
296;DHT22;132;48.770;9.200;2022-08-21T17:01:12;25.70;1.00
296;DHT22;132;48.770;9.200;2022-08-21T17:04:00;25.70;1.00
296;DHT22;132;48.770;9.200;2022-08-21T17:06:47;25.60;1.00
296;DHT22;132;48.770;9.200;2022-08-21T17:09:34;25.60;1.00
296;DHT22;132;48.770;9.200;2022-08-21T17:12:21;25.60;1.00
296;DHT22;132;48.770;9.200;2022-08-21T17:15:18;25.50;1.00
296;DHT22;132;48.770;9.200;2022-08-21T17:18:08;25.40;1.00
296;DHT22;132;48.770;9.200;2022-08-21T17:20:55;25.40;1.00
296;DHT22;132;48.770;9.200;2022-08-21T17:23:42;25.40;1.00
296;DHT22;132;48.770;9.200;2022-08-21T17:26:29;25.30;1.00
296;DHT22;132;48.770;9.200;2022-08-21T17:29:16;25.30;1.00
296;DHT22;132;48.770;9.200;2022-08-21T17:32:10;25.30;1.00
296;DHT22;132;48.770;9.200;2022-08-21T17:34:57;25.20;1.00
296;DHT22;132;48.770;9.200;2022-08-21T17:37:43;25.10;1.00
296;DHT22;132;48.770;9.200;2022-08-21T17:40:30;25.10;1.00
296;DHT22;132;48.770;9.200;2022-08-21T17:43:17;25.00;1.00
296;DHT22;132;48.770;9.200;2022-08-21T17:46:04;24.90;1.00
296;DHT22;132;48.770;9.200;2022-08-21T17:48:51;24.90;1.00
296;DHT22;132;48.770;9.200;2022-08-21T17:51:38;24.80;1.00
296;DHT22;132;48.770;9.200;2022-08-21T17:54:28;24.60;1.00
296;DHT22;132;48.770;9.200;2022-08-21T17:57:20;24.60;1.00
296;DHT22;132;48.770;9.200;2022-08-21T18:00:11;24.40;1.00
296;DHT22;132;48.770;9.200;2022-08-21T18:03:08;24.30;1.00
296;DHT22;132;48.770;9.200;2022-08-21T18:06:00;24.10;1.00
296;DHT22;132;48.770;9.200;2022-08-21T18:08:46;23.90;1.00
296;DHT22;132;48.770;9.200;2022-08-21T18:11:34;23.70;1.00
296;DHT22;132;48.770;9.200;2022-08-21T18:14:28;23.60;1.00
296;DHT22;132;48.770;9.200;2022-08-21T18:17:18;23.50;1.00
296;DHT22;132;48.770;9.200;2022-08-21T18:20:06;23.30;1.00
296;DHT22;132;48.770;9.200;2022-08-21T18:22:54;23.20;1.00
296;DHT22;132;48.770;9.200;2022-08-21T18:25:43;23.10;1.00
296;DHT22;132;48.770;9.200;2022-08-21T18:28:31;23.00;1.00
296;DHT22;132;48.770;9.200;2022-08-21T18:31:19;22.80;1.00
296;DHT22;132;48.770;9.200;2022-08-21T18:34:17;22.70;1.00
296;DHT22;132;48.770;9.200;2022-08-21T18:37:06;22.60;1.00
296;DHT22;132;48.770;9.200;2022-08-21T18:39:53;22.40;1.00
296;DHT22;132;48.770;9.200;2022-08-21T18:42:43;22.40;1.00
296;DHT22;132;48.770;9.200;2022-08-21T18:45:30;22.30;1.00
296;DHT22;132;48.770;9.200;2022-08-21T18:48:17;22.20;1.00
296;DHT22;132;48.770;9.200;2022-08-21T18:51:04;22.10;1.00
296;DHT22;132;48.770;9.200;2022-08-21T18:53:50;22.60;1.00
296;DHT22;132;48.770;9.200;2022-08-21T18:56:37;22.00;1.00
296;DHT22;132;48.770;9.200;2022-08-21T18:59:27;21.90;1.00
296;DHT22;132;48.770;9.200;2022-08-21T19:02:13;21.80;1.00
296;DHT22;132;48.770;9.200;2022-08-21T19:05:01;21.70;1.00
296;DHT22;132;48.770;9.200;2022-08-21T19:07:48;21.60;1.00
296;DHT22;132;48.770;9.200;2022-08-21T19:10:35;21.50;1.00
296;DHT22;132;48.770;9.200;2022-08-21T19:13:23;21.50;1.00
296;DHT22;132;48.770;9.200;2022-08-21T19:16:14;21.40;1.00
296;DHT22;132;48.770;9.200;2022-08-21T19:19:02;21.40;1.00
296;DHT22;132;48.770;9.200;2022-08-21T19:21:49;21.30;1.00
296;DHT22;132;48.770;9.200;2022-08-21T19:24:37;21.30;1.00
296;DHT22;132;48.770;9.200;2022-08-21T19:27:24;21.20;1.00
296;DHT22;132;48.770;9.200;2022-08-21T19:30:11;21.20;1.00
296;DHT22;132;48.770;9.200;2022-08-21T19:32:57;21.20;1.00
296;DHT22;132;48.770;9.200;2022-08-21T19:35:44;21.10;1.00
296;DHT22;132;48.770;9.200;2022-08-21T19:38:31;22.40;1.00
296;DHT22;132;48.770;9.200;2022-08-21T19:41:18;21.10;1.00
296;DHT22;132;48.770;9.200;2022-08-21T19:44:07;21.00;1.00
296;DHT22;132;48.770;9.200;2022-08-21T19:46:56;20.90;1.00
296;DHT22;132;48.770;9.200;2022-08-21T19:49:51;20.90;1.00
296;DHT22;132;48.770;9.200;2022-08-21T19:52:39;20.80;1.00
296;DHT22;132;48.770;9.200;2022-08-21T19:55:25;20.80;1.00
296;DHT22;132;48.770;9.200;2022-08-21T19:58:26;20.70;1.00
296;DHT22;132;48.770;9.200;2022-08-21T20:01:15;20.80;1.00
296;DHT22;132;48.770;9.200;2022-08-21T20:04:02;20.70;1.00
296;DHT22;132;48.770;9.200;2022-08-21T20:06:49;20.60;1.00
296;DHT22;132;48.770;9.200;2022-08-21T20:09:36;20.60;1.00
296;DHT22;132;48.770;9.200;2022-08-21T20:12:22;20.60;1.00
296;DHT22;132;48.770;9.200;2022-08-21T20:15:09;20.50;1.00
296;DHT22;132;48.770;9.200;2022-08-21T20:17:56;20.50;1.00
296;DHT22;132;48.770;9.200;2022-08-21T20:20:44;20.50;1.00
296;DHT22;132;48.770;9.200;2022-08-21T20:23:32;20.40;1.00
296;DHT22;132;48.770;9.200;2022-08-21T20:26:19;20.40;1.00
296;DHT22;132;48.770;9.200;2022-08-21T20:29:05;20.30;1.00
296;DHT22;132;48.770;9.200;2022-08-21T20:31:52;20.30;1.00
296;DHT22;132;48.770;9.200;2022-08-21T20:34:40;20.20;1.00
296;DHT22;132;48.770;9.200;2022-08-21T20:37:27;20.20;1.00
296;DHT22;132;48.770;9.200;2022-08-21T20:40:15;20.10;1.00
296;DHT22;132;48.770;9.200;2022-08-21T20:43:03;20.10;1.00
296;DHT22;132;48.770;9.200;2022-08-21T20:45:50;20.00;1.00